Terminal Aerodrome Forecast
Issued by NWS Sterling, VA

Current Version | Previous Version | Graphics & Text | Print | Product List | Glossary On
Versions: 1 2 3 4 5 6 7 8 9 10 11 12 13 14 15 16 17 18 19 20 21 22 23 24 25 26 27 28 29 30
000
FTUS41 KLWX 032051 AAA
TAFDCA
TAF AMD
KDCA 032051Z 0321/0418 16006KT P6SM SCT050 OVC100
     FM040000 15005KT 6SM -SHRA BKN050 OVC100
     FM040700 10006KT 4SM -SHRA OVC050
     FM040900 07006KT 3SM -SHRA SCT008 BKN015 OVC030
     FM041600 32006KT P6SM -SHRA OVC025=

USA.gov is the U.S. government's official web portal to all federal, state and local government web resources and services.